Terminal Aerodrome Forecast
Issued by NWS

Current Version | Previous Version | Text Only | Print | Product List | Glossary On
Versions: 1 2 3 4 5 6 7 8 9 10 11 12 13 14 15 16 17 18 19 20 21 22 23 24
000
FTUS41 KOKX 062320
TAFHPN
TAF
KHPN 062320Z 0700/0724 17008KT P6SM BKN070 BKN250
     FM070100 14005KT P6SM SCT020 BKN100
     FM070400 14004KT 4SM BR SCT006 BKN015
     FM070700 14004KT 2SM BR BKN006
     FM071200 16006KT 4SM BR SCT008 BKN015 BKN150
     FM071400 17009KT 6SM HZ VCSH SCT015 BKN050 PROB30 0714/0720 3SM
      TSRA BKN035CB
     FM072000 18009KT P6SM BKN050
      AMD NOT SKED=

USA.gov is the U.S. government's official web portal to all federal, state and local government web resources and services.